Time;durP1;ratioP1;P1;durP2;ratioP2;P2;SDS_P1;SDS_P2;PMS_P1;PMS_P2;Temp;Humidity;BMP_temperature;BMP_pressure;BME280_temperature;BME280_humidity;BME280_pressure;Samples;Min_cycle;Max_cycle;Signal;HPM_P1;HPM_P2
2021/12/14 00:00:43;;;;;;;19.10;12.77;;;8.80;99.90;;;;;;5067187;28;20471;-46
2021/12/14 00:03:13;;;;;;;17.27;11.97;;;8.80;99.90;;;;;;5067081;28;20486;-46
2021/12/14 00:05:41;;;;;;;16.73;12.13;;;8.70;99.90;;;;;;5065717;28;20559;-46
2021/12/14 00:08:12;;;;;;;13.93;10.87;;;8.70;99.90;;;;;;5065032;28;20574;-46
2021/12/14 00:10:51;;;;;;;16.97;12.73;;;8.60;99.90;;;;;;5067296;28;20592;-46
2021/12/14 00:13:28;;;;;;;16.87;12.60;;;8.70;99.90;;;;;;5070080;28;20591;-46
2021/12/14 00:15:56;;;;;;;16.13;12.50;;;8.80;99.90;;;;;;5063156;28;20532;-46
2021/12/14 00:18:24;;;;;;;20.50;11.80;;;8.70;99.90;;;;;;5069907;28;20494;-46
2021/12/14 00:20:54;;;;;;;19.90;13.40;;;8.70;99.90;;;;;;5063227;28;20483;-46
2021/12/14 00:26:09;;;;;;;16.07;11.67;;;8.50;99.90;;;;;;5049776;28;20472;-46
2021/12/14 00:28:38;;;;;;;15.83;10.20;;;8.50;99.90;;;;;;5070831;28;20481;-46
2021/12/14 00:31:10;;;;;;;22.13;11.97;;;8.60;99.90;;;;;;5064667;28;20482;-46
2021/12/14 00:33:39;;;;;;;22.00;13.87;;;8.60;99.90;;;;;;5067466;28;20474;-46
2021/12/14 00:36:08;;;;;;;22.60;13.70;;;8.50;99.90;;;;;;5075548;28;20543;-47
2021/12/14 00:38:35;;;;;;;23.60;15.13;;;8.50;99.90;;;;;;5083747;28;20486;-46
2021/12/14 00:41:06;;;;;;;28.37;15.23;;;8.40;99.90;;;;;;5072170;28;20490;-47
2021/12/14 00:43:33;;;;;;;28.70;14.60;;;8.40;99.90;;;;;;5073999;28;20511;-46
2021/12/14 00:46:01;;;;;;;23.97;13.50;;;8.30;99.90;;;;;;5072761;28;20482;-46
2021/12/14 00:48:28;;;;;;;24.23;14.47;;;8.30;99.90;;;;;;5079189;28;20488;-46
2021/12/14 00:50:59;;;;;;;22.67;15.20;;;8.40;99.90;;;;;;5076643;28;20484;-46
2021/12/14 00:53:26;;;;;;;28.23;16.60;;;8.50;99.90;;;;;;5078626;28;20486;-46
2021/12/14 00:55:55;;;;;;;33.97;17.77;;;8.50;99.90;;;;;;5081735;28;20503;-46
2021/12/14 00:58:22;;;;;;;29.17;16.20;;;8.40;99.90;;;;;;5075457;28;20490;-46
2021/12/14 01:00:55;;;;;;;31.43;17.40;;;8.40;99.90;;;;;;5078989;28;20492;-47
2021/12/14 01:03:23;;;;;;;29.47;15.60;;;8.30;99.90;;;;;;5076039;28;20497;-47
2021/12/14 01:05:51;;;;;;;35.80;17.80;;;8.30;99.90;;;;;;5078489;28;21133;-47
2021/12/14 01:08:21;;;;;;;33.60;17.80;;;8.20;99.90;;;;;;5080507;28;20502;-48
2021/12/14 01:10:52;;;;;;;43.63;21.13;;;8.20;99.90;;;;;;5077427;28;20491;-47
2021/12/14 01:13:24;;;;;;;45.37;18.43;;;8.10;99.90;;;;;;5080906;28;20481;-47
2021/12/14 01:16:01;;;;;;;42.93;20.33;;;8.10;99.90;;;;;;5073216;28;20474;-48
2021/12/14 01:18:45;;;;;;;35.43;16.53;;;8.00;99.90;;;;;;5079233;28;20543;-48
2021/12/14 01:21:21;;;;;;;39.10;17.77;;;8.10;99.90;;;;;;5074412;28;20968;-47
2021/12/14 01:23:58;;;;;;;45.27;19.17;;;8.00;99.90;;;;;;5053673;28;20524;-47
2021/12/14 01:26:25;;;;;;;44.03;17.93;;;7.90;99.90;;;;;;5082464;28;20477;-48
2021/12/14 01:28:52;;;;;;;42.57;16.77;;;7.90;99.90;;;;;;5082259;28;20471;-48
2021/12/14 01:31:27;;;;;;;52.03;19.53;;;8.00;99.90;;;;;;5082088;28;20473;-47
2021/12/14 01:33:57;;;;;;;44.13;16.93;;;8.00;99.90;;;;;;5070195;28;20582;-48
2021/12/14 01:36:30;;;;;;;32.43;14.53;;;8.00;99.90;;;;;;5086574;28;21029;-48
2021/12/14 01:39:22;;;;;;;41.10;16.00;;;7.90;99.90;;;;;;5080068;28;20473;-48
2021/12/14 01:41:52;;;;;;;35.03;15.30;;;8.00;99.90;;;;;;5074447;28;20498;-47
2021/12/14 01:44:19;;;;;;;38.03;13.63;;;7.90;99.90;;;;;;5074463;28;20478;-47
2021/12/14 01:46:48;;;;;;;32.33;14.93;;;7.70;99.90;;;;;;5087210;28;20531;-47
2021/12/14 01:49:18;;;;;;;27.07;11.53;;;7.70;99.90;;;;;;5079050;28;20489;-47
2021/12/14 01:51:49;;;;;;;36.10;14.07;;;7.70;99.90;;;;;;5080518;28;20483;-47
2021/12/14 01:54:19;;;;;;;29.90;12.50;;;7.70;99.90;;;;;;5079973;28;20487;-47
2021/12/14 01:56:46;;;;;;;24.47;12.30;;;7.80;99.90;;;;;;5082897;28;20558;-47
2021/12/14 01:59:17;;;;;;;23.57;11.30;;;7.90;99.90;;;;;;5076058;28;20493;-47
2021/12/14 02:01:54;;;;;;;26.30;12.70;;;7.90;99.90;;;;;;5074127;28;20486;-47
2021/12/14 02:04:25;;;;;;;51.33;15.23;;;7.90;99.90;;;;;;5076073;28;20484;-47
2021/12/14 02:06:55;;;;;;;31.37;13.10;;;7.80;99.90;;;;;;5078247;28;20466;-47
2021/12/14 02:09:24;;;;;;;32.17;13.67;;;7.70;99.90;;;;;;5073377;28;21086;-47
2021/12/14 02:11:54;;;;;;;42.20;14.57;;;7.60;99.90;;;;;;5082155;28;20492;-47
2021/12/14 02:14:22;;;;;;;43.50;15.10;;;7.50;99.90;;;;;;5087983;27;21359;-47
2021/12/14 02:16:51;;;;;;;31.97;13.97;;;7.50;99.90;;;;;;5075248;28;20491;-47
2021/12/14 02:19:18;;;;;;;34.40;14.20;;;7.60;99.90;;;;;;5075321;28;20529;-46
2021/12/14 02:21:49;;;;;;;26.37;11.70;;;7.70;99.90;;;;;;5078488;28;20503;-47
2021/12/14 02:24:20;;;;;;;28.17;12.73;;;7.70;99.90;;;;;;5089253;28;20482;-47
2021/12/14 02:26:50;;;;;;;31.60;13.23;;;7.70;99.90;;;;;;5086848;27;20490;-47
2021/12/14 02:29:24;;;;;;;33.80;12.90;;;7.60;99.90;;;;;;5074257;27;20508;-47
2021/12/14 02:31:52;;;;;;;35.73;12.83;;;7.40;99.90;;;;;;5080926;28;20553;-47
2021/12/14 02:34:20;;;;;;;23.27;11.00;;;7.40;99.90;;;;;;5078349;28;20490;-47
2021/12/14 02:36:50;;;;;;;27.53;12.03;;;7.30;99.90;;;;;;5075920;28;20488;-47
2021/12/14 02:39:35;;;;;;;41.53;12.30;;;7.40;99.90;;;;;;5075078;28;20480;-47
2021/12/14 02:42:02;;;;;;;25.80;11.27;;;7.60;99.90;;;;;;5073073;28;20538;-47
2021/12/14 02:44:29;;;;;;;29.43;13.30;;;7.80;99.90;;;;;;5085275;28;20478;-47
2021/12/14 02:47:02;;;;;;;39.47;14.07;;;7.60;99.90;;;;;;5080055;28;20505;-47
2021/12/14 02:49:32;;;;;;;33.97;12.93;;;7.60;99.90;;;;;;5076994;28;20514;-47
2021/12/14 02:52:06;;;;;;;32.00;12.27;;;7.50;99.90;;;;;;5077983;28;20491;-47
2021/12/14 02:54:36;;;;;;;41.43;14.27;;;7.50;99.90;;;;;;5076631;28;20481;-47
2021/12/14 02:57:08;;;;;;;45.07;14.30;;;7.50;99.90;;;;;;5079517;28;20480;-47
2021/12/14 02:59:37;;;;;;;38.60;13.47;;;7.40;99.90;;;;;;5073351;28;20481;-47
2021/12/14 03:02:08;;;;;;;39.10;14.93;;;7.40;99.90;;;;;;5074350;28;20485;-47
2021/12/14 03:04:39;;;;;;;55.20;15.70;;;7.40;99.90;;;;;;5074700;28;20485;-46
2021/12/14 03:07:08;;;;;;;44.47;13.73;;;7.30;99.90;;;;;;5080177;28;20487;-46
2021/12/14 03:09:53;;;;;;;38.70;14.83;;;7.30;99.90;;;;;;5077680;28;20892;-47
2021/12/14 03:12:23;;;;;;;38.70;14.10;;;7.20;99.90;;;;;;5046143;28;20874;-46
2021/12/14 03:14:53;;;;;;;42.90;14.47;;;7.20;99.90;;;;;;5084945;28;20807;-46
2021/12/14 03:17:20;;;;;;;39.60;14.67;;;7.20;99.90;;;;;;5070782;28;20525;-47
2021/12/14 03:19:53;;;;;;;48.37;14.17;;;7.10;99.90;;;;;;5077040;28;20542;-47
2021/12/14 03:22:25;;;;;;;26.63;12.87;;;7.10;99.90;;;;;;5075015;28;20484;-47
2021/12/14 03:24:52;;;;;;;29.03;10.77;;;7.10;99.90;;;;;;5085245;28;20479;-47
2021/12/14 03:27:19;;;;;;;21.50;10.60;;;7.20;99.90;;;;;;5084282;28;20486;-47
2021/12/14 03:29:46;;;;;;;41.30;14.03;;;7.20;99.90;;;;;;5078690;28;20481;-47
2021/12/14 03:32:12;;;;;;;66.43;17.43;;;7.10;99.90;;;;;;5073778;28;20486;-47
2021/12/14 03:34:40;;;;;;;53.77;18.03;;;7.00;99.90;;;;;;5090079;28;20538;-47
2021/12/14 03:37:10;;;;;;;43.13;13.43;;;7.00;99.90;;;;;;5087204;28;20481;-46
2021/12/14 03:39:41;;;;;;;100.87;19.50;;;7.10;99.90;;;;;;5077616;28;20789;-47
2021/12/14 03:42:11;;;;;;;126.10;23.87;;;7.10;99.90;;;;;;5071932;28;20514;-47
2021/12/14 03:44:41;;;;;;;100.97;20.83;;;7.10;99.90;;;;;;5076756;28;20830;-47
2021/12/14 03:47:11;;;;;;;167.00;24.87;;;7.10;99.90;;;;;;5093050;28;21425;-47
2021/12/14 03:49:43;;;;;;;76.53;17.80;;;7.00;99.90;;;;;;5066294;28;20534;-47
2021/12/14 03:52:13;;;;;;;86.53;19.20;;;7.10;99.90;;;;;;5093192;28;20494;-47
2021/12/14 03:54:41;;;;;;;244.83;29.33;;;7.20;99.90;;;;;;5081950;28;21024;-47
2021/12/14 03:57:09;;;;;;;110.87;20.00;;;7.30;99.90;;;;;;5077291;28;20481;-47
2021/12/14 03:59:36;;;;;;;145.00;21.03;;;7.20;99.90;;;;;;5078654;28;20498;-47
2021/12/14 04:02:08;;;;;;;66.53;17.00;;;7.20;99.90;;;;;;5074991;28;22327;-47
2021/12/14 04:04:39;;;;;;;83.13;18.97;;;7.30;99.90;;;;;;5069543;28;20482;-46
2021/12/14 04:07:11;;;;;;;66.50;16.50;;;7.30;99.90;;;;;;5090950;28;20562;-47
2021/12/14 04:09:39;;;;;;;111.90;17.43;;;7.40;99.90;;;;;;5076401;28;20556;-47
2021/12/14 04:12:10;;;;;;;103.70;20.63;;;7.30;99.90;;;;;;5085019;28;20488;-47
2021/12/14 04:14:38;;;;;;;87.63;18.40;;;7.00;99.90;;;;;;5081992;28;20485;-47
2021/12/14 04:17:05;;;;;;;56.53;17.77;;;6.80;99.90;;;;;;5079671;28;20875;-47
2021/12/14 04:19:35;;;;;;;38.57;12.90;;;6.60;99.90;;;;;;5073815;28;20483;-47
2021/12/14 04:22:06;;;;;;;33.60;11.00;;;6.70;99.90;;;;;;5082930;28;20483;-47
2021/12/14 04:24:38;;;;;;;26.80;11.80;;;6.80;99.90;;;;;;5080932;28;20493;-47
2021/12/14 04:27:11;;;;;;;47.47;13.47;;;6.90;99.90;;;;;;5069975;28;20594;-46
2021/12/14 04:29:39;;;;;;;48.33;14.57;;;7.00;99.90;;;;;;5066289;28;20485;-46
2021/12/14 04:32:09;;;;;;;65.30;16.50;;;6.90;99.90;;;;;;5080142;28;20493;-47
2021/12/14 04:34:36;;;;;;;73.00;16.80;;;6.80;99.90;;;;;;5079280;28;20488;-47
2021/12/14 04:37:04;;;;;;;48.57;15.07;;;6.60;99.90;;;;;;5078660;28;20548;-47
2021/12/14 04:39:39;;;;;;;87.37;18.80;;;6.60;99.90;;;;;;5078019;28;20586;-47
2021/12/14 04:53:33;;;;;;;60.17;15.70;;;6.50;99.90;;;;;;5081307;28;20553;-46
2021/12/14 04:56:00;;;;;;;74.33;17.50;;;6.30;99.90;;;;;;5081884;28;20487;-47
2021/12/14 04:58:32;;;;;;;75.43;18.50;;;6.30;99.90;;;;;;5082478;28;20501;-47
2021/12/14 05:01:01;;;;;;;39.20;13.53;;;6.40;99.90;;;;;;5077421;28;21032;-47
2021/12/14 05:03:32;;;;;;;47.10;13.60;;;6.60;99.90;;;;;;5079050;28;20484;-47
2021/12/14 05:06:13;;;;;;;44.30;13.77;;;6.60;99.90;;;;;;5083490;28;20481;-47
2021/12/14 05:11:25;;;;;;;56.80;13.87;;;6.70;99.90;;;;;;5044312;28;20501;-48
2021/12/14 05:14:01;;;;;;;132.00;20.50;;;6.90;99.90;;;;;;5095318;28;20843;-46
2021/12/14 05:16:30;;;;;;;157.97;19.70;;;6.90;99.90;;;;;;5071286;28;20472;-48
2021/12/14 05:19:00;;;;;;;204.43;26.13;;;6.80;99.90;;;;;;5083020;28;20484;-47
2021/12/14 05:24:52;;;;;;;64.27;17.77;;;6.50;99.90;;;;;;5056786;28;20483;-46
2021/12/14 05:27:23;;;;;;;121.13;20.23;;;6.30;99.90;;;;;;5088623;28;20958;-47
2021/12/14 05:29:51;;;;;;;134.73;21.87;;;6.20;99.90;;;;;;5054767;28;20481;-46
2021/12/14 05:32:19;;;;;;;164.37;22.10;;;6.10;99.90;;;;;;5083787;28;20484;-47
2021/12/14 05:34:49;;;;;;;82.77;20.20;;;6.10;99.90;;;;;;5080768;28;20506;-47
2021/12/14 05:37:20;;;;;;;91.60;19.60;;;6.10;99.90;;;;;;5081467;28;20472;-46
2021/12/14 05:39:54;;;;;;;181.83;24.70;;;6.00;99.90;;;;;;5079543;28;20780;-47
2021/12/14 05:45:10;;;;;;;217.00;26.73;;;6.10;99.90;;;;;;5079850;28;21006;-47
2021/12/14 05:47:45;;;;;;;62.37;14.90;;;6.20;99.90;;;;;;5073971;28;20996;-46
2021/12/14 05:50:18;;;;;;;39.33;13.47;;;6.20;99.90;;;;;;5092998;28;20484;-47
2021/12/14 05:52:45;;;;;;;37.40;10.93;;;6.10;99.90;;;;;;5082182;28;20943;-47
2021/12/14 05:55:14;;;;;;;168.17;26.43;;;6.00;99.90;;;;;;5083747;28;20495;-46
2021/12/14 05:57:40;;;;;;;155.90;27.00;;;5.80;99.90;;;;;;5083904;28;20485;-47
2021/12/14 06:00:12;;;;;;;190.63;27.43;;;5.70;99.90;;;;;;5080883;28;21364;-47
2021/12/14 06:02:39;;;;;;;255.27;32.90;;;5.60;99.90;;;;;;5087242;28;20484;-47
2021/12/14 06:05:13;;;;;;;205.33;28.37;;;5.70;99.90;;;;;;5082188;28;20480;-47
2021/12/14 06:07:40;;;;;;;216.27;32.97;;;5.70;99.90;;;;;;5082012;28;20491;-46
2021/12/14 06:10:08;;;;;;;227.20;31.33;;;5.60;99.90;;;;;;5079538;28;20998;-47
2021/12/14 06:12:36;;;;;;;73.47;16.30;;;5.70;99.90;;;;;;5083041;28;20500;-47
2021/12/14 06:15:09;;;;;;;77.20;14.40;;;5.80;99.90;;;;;;5082604;28;20541;-46
2021/12/14 06:17:40;;;;;;;402.47;41.00;;;5.90;99.90;;;;;;5084140;28;20484;-47
2021/12/14 06:20:10;;;;;;;242.27;29.43;;;5.90;99.90;;;;;;5081725;28;21170;-47
2021/12/14 06:22:39;;;;;;;95.43;19.70;;;5.90;99.90;;;;;;5081191;28;20510;-47
2021/12/14 06:25:09;;;;;;;251.80;30.80;;;6.00;99.90;;;;;;5079533;28;20487;-47
2021/12/14 06:27:37;;;;;;;147.33;20.77;;;6.00;99.90;;;;;;5081840;28;20541;-47
2021/12/14 06:30:08;;;;;;;125.27;22.30;;;6.20;99.90;;;;;;5079304;28;20477;-47
2021/12/14 06:32:44;;;;;;;309.80;36.77;;;6.30;99.90;;;;;;5081252;28;20484;-47
2021/12/14 06:35:17;;;;;;;182.43;22.50;;;6.30;99.90;;;;;;5083469;28;20479;-47
2021/12/14 06:38:22;;;;;;;104.07;20.30;;;6.20;99.90;;;;;;5084121;28;20507;-47
2021/12/14 06:40:54;;;;;;;110.27;19.77;;;6.30;99.90;;;;;;5075024;28;20479;-47
2021/12/14 06:43:23;;;;;;;172.47;23.17;;;6.30;99.90;;;;;;5071477;28;20670;-47
2021/12/14 06:45:55;;;;;;;109.87;22.53;;;6.40;99.90;;;;;;5089773;28;20599;-47
2021/12/14 06:48:26;;;;;;;372.53;37.97;;;6.50;99.90;;;;;;5071446;28;20486;-47
2021/12/14 06:50:57;;;;;;;273.63;30.87;;;6.40;99.90;;;;;;5085457;28;20537;-49
2021/12/14 06:53:24;;;;;;;331.07;34.50;;;6.30;99.90;;;;;;5075889;28;20722;-46
2021/12/14 06:55:52;;;;;;;152.30;21.20;;;6.30;99.90;;;;;;5073971;28;20476;-47
2021/12/14 06:58:20;;;;;;;219.27;27.93;;;6.30;99.90;;;;;;5083844;28;20476;-47
2021/12/14 07:00:49;;;;;;;179.50;24.90;;;6.30;99.90;;;;;;5072106;28;20530;-47
2021/12/14 07:03:16;;;;;;;389.07;36.90;;;6.30;99.90;;;;;;5071344;28;20481;-47
2021/12/14 07:05:48;;;;;;;232.33;29.73;;;6.20;99.90;;;;;;5076733;28;20493;-47
2021/12/14 07:08:21;;;;;;;205.73;26.13;;;6.00;99.90;;;;;;5080058;28;20492;-47
2021/12/14 07:10:49;;;;;;;178.50;24.27;;;5.90;99.90;;;;;;5076621;28;20481;-47
2021/12/14 07:13:20;;;;;;;120.37;19.07;;;6.00;99.90;;;;;;5071880;28;20480;-48
2021/12/14 07:15:47;;;;;;;259.23;30.03;;;6.10;99.90;;;;;;5078524;28;20669;-47
2021/12/14 07:18:14;;;;;;;130.57;20.37;;;6.10;99.90;;;;;;5080455;28;20557;-47
2021/12/14 07:20:44;;;;;;;213.70;25.93;;;6.20;99.90;;;;;;5079548;28;20884;-47
2021/12/14 07:23:21;;;;;;;115.17;20.93;;;6.20;99.90;;;;;;5081532;28;20484;-48
2021/12/14 07:25:53;;;;;;;185.17;24.27;;;6.20;99.90;;;;;;5084177;28;20483;-46
2021/12/14 07:28:20;;;;;;;180.33;25.10;;;6.30;99.90;;;;;;5081150;28;20536;-47
2021/12/14 07:30:49;;;;;;;368.00;39.47;;;6.30;99.90;;;;;;5079813;28;20491;-47
2021/12/14 07:33:18;;;;;;;275.10;32.33;;;6.30;99.90;;;;;;5079494;28;20839;-47
2021/12/14 07:35:54;;;;;;;241.17;28.90;;;6.30;99.90;;;;;;5080106;28;20481;-47
2021/12/14 07:38:40;;;;;;;232.30;25.87;;;6.30;99.90;;;;;;5076759;28;20472;-47
2021/12/14 07:41:16;;;;;;;199.53;26.87;;;6.30;99.90;;;;;;5055193;28;20468;-47
2021/12/14 07:43:47;;;;;;;119.30;19.47;;;6.30;99.90;;;;;;5064690;28;20491;-48
2021/12/14 07:46:19;;;;;;;80.47;18.03;;;6.30;99.90;;;;;;5082104;28;20836;-47
2021/12/14 07:48:48;;;;;;;104.70;19.87;;;6.30;99.90;;;;;;5076313;28;20496;-48
2021/12/14 07:51:20;;;;;;;61.37;15.43;;;6.30;99.90;;;;;;5079567;28;20484;-47
2021/12/14 07:53:49;;;;;;;49.67;14.07;;;6.40;99.90;;;;;;5081658;28;20480;-48
2021/12/14 07:56:26;;;;;;;163.27;22.73;;;6.40;99.90;;;;;;5077708;28;20476;-48
2021/12/14 07:58:54;;;;;;;95.43;17.57;;;6.40;99.90;;;;;;5081033;28;20529;-47
2021/12/14 08:01:21;;;;;;;99.77;16.50;;;6.40;99.90;;;;;;5067471;28;20953;-47
2021/12/14 08:03:48;;;;;;;98.33;16.70;;;6.40;99.90;;;;;;5092433;28;20528;-47
2021/12/14 08:06:17;;;;;;;183.57;24.37;;;6.40;99.90;;;;;;5064118;28;20919;-47
2021/12/14 08:08:45;;;;;;;98.67;18.27;;;6.40;99.90;;;;;;5068467;28;20481;-47
2021/12/14 08:11:47;;;;;;;46.43;11.30;;;6.30;99.90;;;;;;5066353;28;20506;-47
2021/12/14 08:14:19;;;;;;;35.80;9.43;;;6.40;99.90;;;;;;5073053;28;20489;-47
2021/12/14 08:16:50;;;;;;;35.33;10.57;;;6.40;99.90;;;;;;5074567;28;20473;-47
2021/12/14 08:19:26;;;;;;;25.80;9.03;;;6.50;99.90;;;;;;5074087;28;20487;-47
2021/12/14 08:21:55;;;;;;;45.53;11.73;;;6.50;99.90;;;;;;5083259;28;20486;-47
2021/12/14 08:24:22;;;;;;;31.73;10.23;;;6.40;99.90;;;;;;5086169;28;20475;-47
2021/12/14 08:26:51;;;;;;;49.97;11.70;;;6.40;99.90;;;;;;5069569;28;20483;-47
2021/12/14 08:29:21;;;;;;;49.67;11.87;;;6.40;99.90;;;;;;5072290;28;20534;-47
2021/12/14 08:31:51;;;;;;;49.10;12.27;;;6.40;99.90;;;;;;5075783;28;20483;-47
2021/12/14 08:34:21;;;;;;;45.60;11.83;;;6.40;99.90;;;;;;5072918;28;20517;-46
2021/12/14 08:36:51;;;;;;;30.53;11.23;;;6.40;99.90;;;;;;5075944;28;20487;-47
2021/12/14 08:39:23;;;;;;;46.03;12.10;;;6.50;99.90;;;;;;5082849;28;20519;-47
2021/12/14 08:41:56;;;;;;;95.00;14.90;;;6.50;99.90;;;;;;5084244;28;20521;-47
2021/12/14 08:44:35;;;;;;;69.60;13.93;;;6.50;99.90;;;;;;5079637;28;20551;-47
2021/12/14 08:47:03;;;;;;;131.37;20.93;;;6.60;99.90;;;;;;5055207;28;20512;-47
2021/12/14 08:49:30;;;;;;;75.27;14.90;;;6.70;99.90;;;;;;5074118;28;20533;-47
2021/12/14 08:51:57;;;;;;;168.87;20.67;;;6.70;99.90;;;;;;5075200;28;20487;-48
2021/12/14 08:54:29;;;;;;;52.03;14.10;;;6.60;99.90;;;;;;5070128;28;20492;-47
2021/12/14 08:56:59;;;;;;;52.73;14.40;;;6.60;99.90;;;;;;5077581;28;20500;-47
2021/12/14 08:59:27;;;;;;;43.93;13.10;;;6.60;99.90;;;;;;5072170;28;20490;-47
2021/12/14 09:01:55;;;;;;;60.47;14.23;;;6.60;99.90;;;;;;5084838;28;20483;-47
2021/12/14 09:04:24;;;;;;;39.17;12.53;;;6.60;99.90;;;;;;5066417;28;20484;-47
2021/12/14 09:06:55;;;;;;;67.70;15.03;;;6.70;99.90;;;;;;5072265;28;21111;-47
2021/12/14 09:09:23;;;;;;;74.10;16.57;;;6.70;99.90;;;;;;5071976;28;20498;-47
2021/12/14 09:11:56;;;;;;;64.33;13.87;;;6.70;99.90;;;;;;5073963;28;20544;-47
2021/12/14 09:14:23;;;;;;;136.97;20.43;;;6.60;99.90;;;;;;5076101;28;20834;-47
2021/12/14 09:16:54;;;;;;;90.73;18.93;;;6.60;99.90;;;;;;5074627;28;20477;-47
2021/12/14 09:19:25;;;;;;;136.87;19.83;;;6.70;99.90;;;;;;5074411;28;20477;-47
2021/12/14 09:21:56;;;;;;;157.63;20.70;;;6.70;99.90;;;;;;5076913;28;21271;-47
2021/12/14 09:24:26;;;;;;;126.17;19.77;;;6.70;99.90;;;;;;5073517;28;20485;-47
2021/12/14 09:26:58;;;;;;;170.97;23.53;;;6.70;99.90;;;;;;5076972;28;20560;-47
2021/12/14 09:29:27;;;;;;;245.13;26.20;;;6.50;99.90;;;;;;5073715;28;20583;-47
2021/12/14 09:31:57;;;;;;;106.37;17.60;;;6.50;99.90;;;;;;5076110;28;20475;-47
2021/12/14 09:34:28;;;;;;;180.50;23.30;;;6.40;99.90;;;;;;5077622;28;20506;-47
2021/12/14 09:36:58;;;;;;;191.03;23.67;;;6.40;99.90;;;;;;5075086;28;20471;-47
2021/12/14 09:39:29;;;;;;;212.77;26.50;;;6.40;99.90;;;;;;5078033;28;20485;-47
2021/12/14 09:42:00;;;;;;;92.97;16.77;;;6.30;99.90;;;;;;5075418;28;20482;-47
2021/12/14 09:44:29;;;;;;;130.40;19.43;;;6.30;99.90;;;;;;5081763;28;20480;-47
2021/12/14 09:47:00;;;;;;;45.70;13.47;;;6.30;99.90;;;;;;5081788;28;20538;-47
2021/12/14 09:49:27;;;;;;;68.50;16.53;;;6.30;99.90;;;;;;5080758;28;20480;-46
2021/12/14 09:51:58;;;;;;;41.03;12.27;;;6.30;99.90;;;;;;5081216;28;20483;-47
2021/12/14 09:54:27;;;;;;;25.30;10.50;;;6.30;99.90;;;;;;5070765;28;20528;-47
2021/12/14 09:56:59;;;;;;;28.43;10.60;;;6.40;99.90;;;;;;5077340;28;20488;-47
2021/12/14 09:59:27;;;;;;;22.00;9.40;;;6.50;99.90;;;;;;5076595;28;21117;-46
2021/12/14 10:01:57;;;;;;;24.67;11.23;;;6.60;99.90;;;;;;5068882;28;20548;-48
2021/12/14 10:04:33;;;;;;;23.73;9.50;;;6.70;99.90;;;;;;5083541;28;20835;-48
2021/12/14 10:07:03;;;;;;;28.87;9.97;;;6.70;99.90;;;;;;5024053;28;1427664;-46
2021/12/14 10:09:38;;;;;;;27.00;10.73;;;6.70;99.90;;;;;;5078185;28;20477;-47
2021/12/14 10:12:18;;;;;;;28.27;11.03;;;6.80;99.90;;;;;;5074695;28;20480;-46
2021/12/14 10:14:48;;;;;;;23.80;9.87;;;6.90;99.90;;;;;;5073623;28;20492;-46
2021/12/14 10:17:16;;;;;;;20.70;9.90;;;6.90;99.90;;;;;;5079311;28;20530;-47
2021/12/14 10:19:44;;;;;;;26.10;13.23;;;6.90;99.90;;;;;;5076129;28;20482;-46
2021/12/14 10:22:16;;;;;;;30.17;12.10;;;6.90;99.90;;;;;;5070066;28;20489;-46
2021/12/14 10:24:43;;;;;;;23.10;11.43;;;6.90;99.90;;;;;;5072987;28;20478;-47
2021/12/14 10:27:17;;;;;;;25.20;10.93;;;6.90;99.90;;;;;;5070679;28;20519;-47
2021/12/14 10:29:45;;;;;;;24.00;11.97;;;7.00;99.90;;;;;;5062317;28;20488;-47
2021/12/14 10:32:14;;;;;;;31.53;11.63;;;7.00;99.90;;;;;;5077229;28;20551;-47
2021/12/14 10:34:46;;;;;;;24.10;11.90;;;7.10;99.90;;;;;;5073129;28;20491;-47
2021/12/14 10:37:19;;;;;;;27.80;12.93;;;7.20;99.90;;;;;;5078106;28;20478;-47
2021/12/14 10:42:53;;;;;;;28.57;12.43;;;7.40;99.90;;;;;;5071346;28;20482;-46
2021/12/14 10:45:22;;;;;;;25.83;11.20;;;7.40;99.90;;;;;;5075124;28;20552;-47
2021/12/14 10:47:49;;;;;;;25.37;11.90;;;7.40;99.90;;;;;;5075183;27;20485;-47
2021/12/14 10:50:21;;;;;;;28.73;11.90;;;7.50;99.90;;;;;;5072529;28;20542;-47
2021/12/14 10:52:48;;;;;;;30.63;12.30;;;7.40;99.90;;;;;;5083680;28;20608;-47
2021/12/14 10:55:21;;;;;;;26.73;11.53;;;7.50;99.90;;;;;;5070056;28;20484;-49
2021/12/14 10:57:49;;;;;;;27.73;12.93;;;7.40;99.90;;;;;;5054834;28;20999;-47
2021/12/14 11:00:28;;;;;;;29.07;12.63;;;7.30;99.90;;;;;;5071495;28;20478;-47
2021/12/14 11:03:00;;;;;;;27.03;12.00;;;7.20;99.90;;;;;;5070745;28;20896;-47
2021/12/14 11:05:28;;;;;;;28.73;13.23;;;7.10;99.90;;;;;;5079545;28;20571;-47
2021/12/14 11:07:55;;;;;;;24.10;12.27;;;7.10;99.90;;;;;;5079567;28;20489;-48
2021/12/14 11:10:25;;;;;;;28.03;12.57;;;7.10;99.90;;;;;;5075480;28;20488;-47
2021/12/14 11:12:57;;;;;;;29.07;14.40;;;7.10;99.90;;;;;;5074593;28;20491;-47
2021/12/14 11:15:27;;;;;;;26.37;10.83;;;7.10;99.90;;;;;;5057788;28;21007;-49
2021/12/14 11:18:11;;;;;;;29.23;13.70;;;7.10;99.90;;;;;;5077754;28;20522;-47
2021/12/14 11:20:42;;;;;;;22.60;12.93;;;7.10;99.90;;;;;;5078283;28;20860;-46
2021/12/14 11:23:12;;;;;;;23.73;11.50;;;7.10;99.90;;;;;;5074994;28;20476;-47
2021/12/14 11:25:46;;;;;;;24.30;13.10;;;7.20;99.90;;;;;;5075545;28;20926;-47
2021/12/14 11:28:19;;;;;;;23.10;10.80;;;7.20;99.90;;;;;;5080741;28;22104;-47
2021/12/14 11:30:49;;;;;;;24.40;12.70;;;7.20;99.90;;;;;;5078327;28;20489;-47
2021/12/14 11:33:20;;;;;;;20.73;11.70;;;7.20;99.90;;;;;;5062173;28;20481;-47
2021/12/14 11:35:52;;;;;;;23.03;12.93;;;7.20;99.90;;;;;;5065850;28;20473;-48
2021/12/14 11:38:30;;;;;;;25.13;12.33;;;7.20;99.90;;;;;;5077356;28;20487;-47
2021/12/14 11:40:59;;;;;;;26.27;11.57;;;7.20;99.90;;;;;;5057967;28;20470;-47
2021/12/14 11:43:30;;;;;;;26.30;11.47;;;7.10;99.90;;;;;;5093054;28;20475;-47
2021/12/14 11:45:58;;;;;;;25.07;11.80;;;7.10;99.90;;;;;;5076215;28;20750;-47
2021/12/14 11:48:31;;;;;;;27.60;13.73;;;7.10;99.90;;;;;;5073995;28;20501;-47
2021/12/14 11:50:59;;;;;;;25.83;12.60;;;7.10;99.90;;;;;;5069103;28;20484;-47
2021/12/14 11:53:26;;;;;;;31.93;12.90;;;7.10;99.90;;;;;;5073321;28;20844;-47
2021/12/14 11:55:56;;;;;;;28.57;14.50;;;7.10;99.90;;;;;;5067698;28;20483;-47
2021/12/14 11:58:30;;;;;;;28.80;13.10;;;7.10;99.90;;;;;;5067207;28;20482;-47
2021/12/14 12:01:04;;;;;;;26.97;12.23;;;7.10;99.90;;;;;;5064352;28;20480;-47
2021/12/14 12:03:40;;;;;;;39.77;16.03;;;7.10;99.90;;;;;;5077108;28;20483;-47
2021/12/14 12:06:25;;;;;;;30.40;15.17;;;7.10;99.90;;;;;;5076833;28;20480;-47
2021/12/14 12:11:44;;;;;;;25.73;14.93;;;7.10;99.90;;;;;;5068715;28;20522;-47
2021/12/14 12:14:23;;;;;;;32.00;15.20;;;7.10;99.90;;;;;;5079764;28;20493;-47
2021/12/14 12:16:51;;;;;;;38.23;16.20;;;7.10;99.90;;;;;;5046891;28;20472;-47
2021/12/14 12:19:22;;;;;;;26.67;13.53;;;7.10;99.90;;;;;;5074110;28;20504;-47
2021/12/14 12:21:51;;;;;;;30.27;15.13;;;7.20;99.90;;;;;;5079023;28;20480;-47
2021/12/14 12:24:41;;;;;;;33.40;15.87;;;7.20;99.90;;;;;;5057940;28;21016;-47
2021/12/14 12:27:24;;;;;;;40.23;16.80;;;7.20;99.90;;;;;;5067169;28;20478;-47
2021/12/14 12:30:33;;;;;;;40.43;16.73;;;7.10;99.90;;;;;;5042161;28;20462;-47
2021/12/14 12:33:09;;;;;;;36.47;15.13;;;7.10;99.90;;;;;;5053214;28;20787;-47
2021/12/14 12:35:40;;;;;;;33.53;16.20;;;7.20;99.90;;;;;;5087879;28;20550;-46
2021/12/14 12:38:24;;;;;;;35.30;17.00;;;7.20;99.90;;;;;;5061568;28;20479;-47
2021/12/14 12:40:55;;;;;;;32.53;15.83;;;7.20;99.90;;;;;;5072342;28;20551;-47
2021/12/14 12:43:27;;;;;;;36.03;16.40;;;7.20;99.90;;;;;;5074624;28;20506;-47
2021/12/14 12:46:08;;;;;;;34.43;16.90;;;7.20;99.90;;;;;;5074082;28;20468;-47
2021/12/14 12:48:52;;;;;;;32.30;16.00;;;7.30;99.90;;;;;;5080083;28;20564;-48
2021/12/14 12:51:56;;;;;;;38.00;18.40;;;7.20;99.90;;;;;;5072785;28;20482;-47
2021/12/14 12:54:36;;;;;;;35.40;16.90;;;7.20;99.90;;;;;;5073080;28;20495;-47
2021/12/14 12:57:17;;;;;;;36.73;16.30;;;7.10;99.90;;;;;;5076099;28;20474;-47
2021/12/14 12:59:49;;;;;;;32.93;17.87;;;7.10;99.90;;;;;;5064677;28;20471;-46
2021/12/14 13:02:23;;;;;;;44.30;19.20;;;7.10;99.90;;;;;;5082859;28;20473;-47
2021/12/14 13:05:00;;;;;;;46.10;20.10;;;7.00;99.90;;;;;;5079955;28;20492;-47
2021/12/14 13:07:36;;;;;;;41.60;17.70;;;6.90;99.90;;;;;;5084007;28;21083;-47
2021/12/14 13:10:09;;;;;;;42.63;20.40;;;6.90;99.90;;;;;;5080614;28;20476;-47
2021/12/14 13:12:49;;;;;;;37.93;18.10;;;6.90;99.90;;;;;;5074829;28;20880;-47
2021/12/14 13:15:40;;;;;;;50.03;21.17;;;6.90;99.90;;;;;;5089351;28;20476;-48
2021/12/14 13:18:29;;;;;;;40.00;19.27;;;6.90;99.90;;;;;;5077200;28;20493;-47
2021/12/14 13:21:01;;;;;;;47.13;21.80;;;6.90;99.90;;;;;;5085327;28;20481;-47
2021/12/14 13:23:51;;;;;;;43.20;20.47;;;6.90;99.90;;;;;;5073841;28;20950;-47
2021/12/14 13:26:33;;;;;;;44.27;18.30;;;6.90;99.90;;;;;;5074530;28;20481;-47